Accueil
METAR-TAF:

METAR-TAF

Aéroports :

Brookhaven Airport

Shirley, New York, États-Unis

latitude: 40-49-18N, longitude: 072-52-08W, altitude: 25 m

Observation

Le bulletin a été fait il y a 38 minutes, à 06:56 UTC
Vent 6 kt de sud/sud-ouest
Température 18°C
Humidité 68%
Pression 1007 hPa
Visibilité: 16.1 km
Quelques nuages à une hauteur de 11000 ft

METAR: KHWV 030656Z AUTO 20006KT 10SM FEW110 18/12 A2973 RMK AO2 SLP067 T01780117

Heure: 03:34 (07:34 UTC)


TAF: absent

Observations et prévisions météorologiques de plus de 4000 aéroports (messages METAR et TAF).

Les stations disponibles sont représentées par des disques jaunes et rouges sur la carte.

Passer la souris dessus pour voir le nom de la station.

Cliquer dessus pour voir les observations et prévisions météorologiques.

Pour changer de carte: cliquez sur les boutons verts avec une croix noire pour zoomer, sur le bouton vert avec un tiret pour effectuer un zoom arrière, ou sur les flèches vertes pour les cartes adjacentes.


METAR-TAF: